Time;durP1;ratioP1;P1;durP2;ratioP2;P2;SDS_P1;SDS_P2;PMS_P1;PMS_P2;Temp;Humidity;BMP_temperature;BMP_pressure;BME280_temperature;BME280_humidity;BME280_pressure;Samples;Min_cycle;Max_cycle;Signal;HPM_P1;HPM_P2
2023/03/14 00:02:27;;;;;;;0.50;0.30;;;10.20;99.90;;;;;;4959264;28;20297;-65
2023/03/14 00:04:56;;;;;;;0.50;0.38;;;10.20;99.90;;;;;;4954840;28;20243;-64
2023/03/14 00:07:25;;;;;;;0.50;0.30;;;10.20;99.90;;;;;;4950291;28;20232;-64
2023/03/14 00:09:53;;;;;;;0.55;0.38;;;10.20;99.90;;;;;;4957332;28;20294;-63
2023/03/14 00:12:21;;;;;;;1.25;0.45;;;10.10;99.90;;;;;;4964128;28;20207;-63
2023/03/14 00:14:49;;;;;;;0.60;0.50;;;10.10;99.90;;;;;;4952142;28;20286;-64
2023/03/14 00:17:18;;;;;;;0.50;0.30;;;10.10;99.90;;;;;;4950640;28;20779;-64
2023/03/14 00:19:46;;;;;;;0.50;0.30;;;10.10;99.90;;;;;;4949448;28;20214;-64
2023/03/14 00:22:13;;;;;;;0.50;0.30;;;10.10;99.90;;;;;;4952761;28;20765;-64
2023/03/14 00:24:41;;;;;;;0.60;0.55;;;10.10;99.90;;;;;;4952111;28;20253;-64
2023/03/14 00:27:09;;;;;;;0.50;0.35;;;10.10;99.90;;;;;;4966502;28;20237;-64
2023/03/14 00:29:37;;;;;;;0.50;0.40;;;10.10;99.90;;;;;;4951938;28;20219;-64
2023/03/14 00:32:05;;;;;;;0.50;0.30;;;10.20;99.90;;;;;;4947052;28;20666;-64
2023/03/14 00:34:34;;;;;;;0.50;0.30;;;10.20;99.90;;;;;;4955794;28;20199;-64
2023/03/14 00:37:02;;;;;;;0.65;0.50;;;10.20;99.90;;;;;;4959124;28;20230;-64
2023/03/14 00:39:30;;;;;;;0.50;0.30;;;10.20;99.90;;;;;;4950721;28;20230;-64
2023/03/14 00:41:57;;;;;;;0.50;0.30;;;10.20;99.90;;;;;;4964084;28;20302;-64
2023/03/14 00:44:25;;;;;;;0.50;0.30;;;10.30;99.90;;;;;;4952837;28;20211;-64
2023/03/14 00:46:53;;;;;;;0.50;0.30;;;10.30;99.90;;;;;;4955231;28;20226;-63
2023/03/14 00:49:21;;;;;;;0.50;0.40;;;10.30;99.90;;;;;;4956038;28;20215;-63
2023/03/14 00:51:51;;;;;;;0.50;0.30;;;10.30;99.90;;;;;;4962876;28;20215;-64
2023/03/14 00:54:19;;;;;;;0.50;0.40;;;10.40;99.90;;;;;;4954817;28;20582;-64
2023/03/14 00:56:47;;;;;;;0.50;0.30;;;10.40;99.90;;;;;;4958497;28;20259;-63
2023/03/14 00:59:17;;;;;;;0.50;0.30;;;10.40;99.90;;;;;;4959354;28;20294;-63
2023/03/14 01:01:45;;;;;;;0.50;0.30;;;10.40;99.90;;;;;;4963672;28;20321;-63
2023/03/14 01:04:13;;;;;;;0.50;0.30;;;10.40;99.90;;;;;;4952374;28;20211;-64
2023/03/14 01:06:41;;;;;;;0.50;0.40;;;10.40;99.90;;;;;;4953946;28;20683;-63
2023/03/14 01:09:10;;;;;;;0.50;0.38;;;10.40;99.90;;;;;;4951306;28;20286;-63
2023/03/14 01:11:38;;;;;;;0.50;0.30;;;10.40;99.90;;;;;;4964193;28;20215;-63
2023/03/14 01:14:06;;;;;;;0.50;0.30;;;10.50;99.90;;;;;;4958046;28;20686;-63
2023/03/14 01:16:35;;;;;;;0.50;0.30;;;10.50;99.90;;;;;;4951188;28;20241;-63
2023/03/14 01:19:04;;;;;;;0.50;0.30;;;10.50;99.90;;;;;;4952056;28;20211;-63
2023/03/14 01:21:33;;;;;;;0.50;0.30;;;10.40;99.90;;;;;;4963056;28;20213;-63
2023/03/14 01:24:03;;;;;;;0.50;0.35;;;10.40;99.90;;;;;;4948672;29;20218;-63
2023/03/14 01:26:34;;;;;;;0.50;0.38;;;10.40;99.90;;;;;;4960991;28;20222;-63
2023/03/14 01:29:03;;;;;;;0.50;0.30;;;10.40;99.90;;;;;;4951007;28;20709;-64
2023/03/14 01:31:31;;;;;;;0.50;0.40;;;10.40;99.90;;;;;;4957976;28;20281;-63
2023/03/14 01:33:59;;;;;;;0.50;0.30;;;10.40;99.90;;;;;;4951969;28;20290;-63
2023/03/14 01:36:27;;;;;;;0.50;0.30;;;10.40;99.90;;;;;;4960178;28;20273;-63
2023/03/14 01:38:58;;;;;;;0.50;0.40;;;10.50;99.90;;;;;;4958749;28;20214;-63
2023/03/14 01:41:26;;;;;;;0.50;0.30;;;10.40;99.90;;;;;;4956195;28;20627;-64
2023/03/14 01:43:56;;;;;;;0.70;0.43;;;10.40;99.90;;;;;;4956567;28;20254;-62
2023/03/14 01:46:45;;;;;;;0.60;0.40;;;10.40;99.90;;;;;;4949082;28;20318;-63
2023/03/14 01:49:19;;;;;;;0.60;0.40;;;10.40;99.90;;;;;;4955921;28;20625;-63
2023/03/14 01:51:53;;;;;;;0.50;0.30;;;10.40;99.90;;;;;;4960726;28;20649;-63
2023/03/14 01:54:25;;;;;;;0.50;0.40;;;10.40;99.90;;;;;;4960113;28;20211;-63
2023/03/14 01:56:58;;;;;;;0.50;0.30;;;10.30;99.90;;;;;;4965001;28;20591;-63
2023/03/14 01:59:29;;;;;;;0.50;0.43;;;10.30;99.90;;;;;;4962383;28;20207;-63
2023/03/14 02:01:57;;;;;;;0.50;0.30;;;10.30;99.90;;;;;;4956059;28;20215;-63
2023/03/14 02:04:29;;;;;;;0.50;0.30;;;10.30;99.90;;;;;;4960833;28;20219;-63
2023/03/14 02:07:03;;;;;;;0.50;0.40;;;10.20;99.90;;;;;;4958825;28;20239;-63
2023/03/14 02:09:31;;;;;;;0.50;0.40;;;10.30;99.90;;;;;;4950259;28;20289;-63
2023/03/14 02:12:00;;;;;;;0.50;0.30;;;10.30;99.90;;;;;;4955352;28;20211;-63
2023/03/14 02:14:32;;;;;;;0.50;0.30;;;10.30;99.90;;;;;;4949658;28;20265;-63
2023/03/14 02:17:02;;;;;;;0.50;0.30;;;10.30;99.90;;;;;;4960968;28;20795;-64
2023/03/14 02:19:45;;;;;;;0.80;0.40;;;10.30;99.90;;;;;;4957859;28;20209;-63
2023/03/14 02:22:16;;;;;;;0.50;0.30;;;10.30;99.90;;;;;;4952038;28;20216;-63
2023/03/14 02:24:51;;;;;;;0.50;0.40;;;10.30;99.90;;;;;;4950203;28;20209;-64
2023/03/14 02:27:21;;;;;;;0.50;0.40;;;10.30;99.90;;;;;;4959539;28;20251;-63
2023/03/14 02:29:53;;;;;;;0.50;0.40;;;10.40;99.90;;;;;;4962223;28;20586;-63
2023/03/14 02:32:23;;;;;;;0.70;0.47;;;10.30;99.90;;;;;;4967440;28;20199;-63
2023/03/14 02:34:55;;;;;;;0.50;0.30;;;10.30;99.90;;;;;;4953629;28;20234;-63
2023/03/14 02:37:28;;;;;;;0.50;0.40;;;10.30;99.90;;;;;;4960204;28;20230;-63
2023/03/14 02:39:55;;;;;;;0.50;0.30;;;10.30;99.90;;;;;;4962106;28;20298;-63
2023/03/14 02:42:25;;;;;;;0.60;0.40;;;10.30;99.90;;;;;;4966860;28;20292;-63
2023/03/14 02:44:55;;;;;;;0.50;0.40;;;10.30;99.90;;;;;;4956224;28;20285;-63
2023/03/14 02:47:28;;;;;;;0.50;0.30;;;10.30;99.90;;;;;;4954661;28;20310;-63
2023/03/14 02:50:01;;;;;;;0.50;0.30;;;10.30;99.90;;;;;;4952248;28;20294;-63
2023/03/14 02:52:29;;;;;;;0.50;0.40;;;10.30;99.90;;;;;;4962866;28;20221;-62
2023/03/14 02:54:57;;;;;;;0.50;0.30;;;10.30;99.90;;;;;;4949315;29;20225;-63
2023/03/14 02:57:26;;;;;;;0.52;0.43;;;10.30;99.90;;;;;;4962652;28;20223;-64
2023/03/14 02:59:54;;;;;;;0.50;0.30;;;10.30;99.90;;;;;;4956905;28;20210;-63
2023/03/14 03:02:22;;;;;;;0.50;0.30;;;10.30;99.90;;;;;;4960792;28;20208;-63
2023/03/14 03:04:50;;;;;;;0.70;0.40;;;10.30;99.90;;;;;;4953939;28;20678;-62
2023/03/14 03:07:18;;;;;;;0.50;0.40;;;10.30;99.90;;;;;;4964245;28;20237;-64
2023/03/14 03:09:55;;;;;;;0.50;0.38;;;10.30;99.90;;;;;;4953270;28;20621;-63
2023/03/14 03:12:23;;;;;;;0.50;0.38;;;10.30;99.90;;;;;;4950807;28;20217;-63
2023/03/14 03:14:52;;;;;;;0.50;0.30;;;10.30;99.90;;;;;;4949783;28;20203;-63
2023/03/14 03:17:20;;;;;;;0.73;0.40;;;10.20;99.90;;;;;;4951698;28;20246;-63
2023/03/14 03:19:48;;;;;;;0.50;0.30;;;10.20;99.90;;;;;;4953973;28;20209;-63
2023/03/14 03:22:16;;;;;;;0.50;0.30;;;10.20;99.90;;;;;;4951173;28;20235;-61
2023/03/14 03:24:44;;;;;;;0.50;0.30;;;10.30;99.90;;;;;;4955007;28;20199;-62
2023/03/14 03:27:12;;;;;;;0.50;0.30;;;10.30;99.90;;;;;;4965619;28;20325;-63
2023/03/14 03:29:40;;;;;;;0.50;0.30;;;10.30;99.90;;;;;;4947553;28;20714;-65
2023/03/14 03:32:09;;;;;;;0.50;0.30;;;10.30;99.90;;;;;;4959118;28;20210;-63
2023/03/14 03:34:37;;;;;;;0.50;0.35;;;10.30;99.90;;;;;;4957865;28;20674;-64
2023/03/14 03:37:05;;;;;;;0.90;0.40;;;10.30;99.90;;;;;;4952981;28;20223;-63
2023/03/14 03:39:32;;;;;;;0.50;0.30;;;10.30;99.90;;;;;;4956258;28;20218;-65
2023/03/14 03:42:00;;;;;;;0.50;0.30;;;10.30;99.90;;;;;;4959260;28;20221;-63
2023/03/14 03:44:28;;;;;;;0.50;0.30;;;10.30;99.90;;;;;;4955113;28;20756;-65
2023/03/14 03:46:56;;;;;;;0.50;0.30;;;10.30;99.90;;;;;;4952492;28;20240;-63
2023/03/14 03:49:25;;;;;;;0.50;0.30;;;10.30;99.90;;;;;;4961401;28;20215;-63
2023/03/14 03:51:53;;;;;;;0.50;0.30;;;10.30;99.90;;;;;;4960625;28;20209;-63
2023/03/14 03:54:21;;;;;;;0.50;0.30;;;10.30;99.90;;;;;;4958820;28;20217;-64
2023/03/14 03:56:48;;;;;;;0.60;0.50;;;10.20;99.90;;;;;;4959873;28;20225;-64
2023/03/14 03:59:16;;;;;;;0.50;0.30;;;10.20;99.90;;;;;;4952171;28;20229;-64
2023/03/14 04:01:44;;;;;;;0.55;0.45;;;10.20;99.90;;;;;;4952489;28;20282;-64
2023/03/14 04:04:12;;;;;;;0.52;0.35;;;10.20;99.90;;;;;;4962868;28;20234;-63
2023/03/14 04:06:42;;;;;;;0.50;0.40;;;10.20;99.90;;;;;;4960918;28;20234;-65
2023/03/14 04:09:10;;;;;;;0.50;0.43;;;10.20;99.90;;;;;;4953161;29;20222;-64
2023/03/14 04:11:38;;;;;;;0.50;0.30;;;10.10;99.90;;;;;;4954272;28;20207;-64
2023/03/14 04:14:06;;;;;;;0.50;0.30;;;10.10;99.90;;;;;;4953112;28;20215;-63
2023/03/14 04:16:34;;;;;;;0.50;0.30;;;10.10;99.90;;;;;;4958101;28;20263;-63
2023/03/14 04:19:03;;;;;;;0.60;0.40;;;10.20;99.90;;;;;;4964785;28;20296;-62
2023/03/14 04:21:31;;;;;;;0.50;0.35;;;10.30;99.90;;;;;;4953331;28;20222;-63
2023/03/14 04:24:00;;;;;;;0.60;0.40;;;10.30;99.90;;;;;;4949505;28;20211;-62
2023/03/14 04:26:28;;;;;;;0.60;0.50;;;10.30;99.90;;;;;;4951258;28;20315;-63
2023/03/14 04:28:55;;;;;;;0.50;0.30;;;10.30;99.90;;;;;;4951084;28;20207;-63
2023/03/14 04:31:24;;;;;;;1.23;0.70;;;10.30;99.90;;;;;;4961674;28;20238;-62
2023/03/14 04:33:52;;;;;;;0.50;0.30;;;10.30;99.90;;;;;;4950374;28;20257;-63
2023/03/14 04:36:20;;;;;;;0.50;0.30;;;10.30;99.90;;;;;;4949608;28;20234;-63
2023/03/14 04:38:48;;;;;;;0.50;0.30;;;10.30;99.90;;;;;;4957852;28;20214;-63
2023/03/14 04:41:17;;;;;;;0.50;0.30;;;10.30;99.90;;;;;;4960855;28;20298;-63
2023/03/14 04:43:45;;;;;;;0.50;0.30;;;10.40;99.90;;;;;;4952290;28;20216;-63
2023/03/14 04:46:13;;;;;;;0.60;0.40;;;10.40;99.90;;;;;;4952787;28;20234;-63
2023/03/14 04:48:41;;;;;;;0.90;0.60;;;10.40;99.90;;;;;;4959151;28;20591;-63
2023/03/14 04:51:10;;;;;;;0.93;0.55;;;10.40;99.90;;;;;;4949783;28;20208;-63
2023/03/14 04:53:38;;;;;;;0.50;0.40;;;10.40;99.90;;;;;;4949804;28;20240;-63
2023/03/14 04:56:07;;;;;;;0.50;0.30;;;10.40;99.90;;;;;;4952825;28;20226;-64
2023/03/14 04:58:36;;;;;;;0.50;0.30;;;10.30;99.90;;;;;;4954932;28;20266;-63
2023/03/14 05:01:05;;;;;;;0.50;0.40;;;10.30;99.90;;;;;;4951121;28;20266;-63
2023/03/14 05:03:33;;;;;;;0.50;0.30;;;10.30;99.90;;;;;;4947786;29;20214;-64
2023/03/14 05:06:01;;;;;;;0.50;0.30;;;10.30;99.90;;;;;;4952356;28;20315;-63
2023/03/14 05:08:29;;;;;;;0.50;0.30;;;10.30;99.90;;;;;;4951322;28;20660;-63
2023/03/14 05:10:58;;;;;;;0.50;0.40;;;10.30;99.90;;;;;;4950031;28;20224;-63
2023/03/14 05:13:26;;;;;;;0.50;0.30;;;10.30;99.90;;;;;;4949826;28;20212;-63
2023/03/14 05:16:05;;;;;;;0.50;0.30;;;10.20;99.90;;;;;;4958511;28;20249;-64
2023/03/14 05:18:33;;;;;;;0.50;0.30;;;10.30;99.90;;;;;;4947733;29;20212;-64
2023/03/14 05:21:01;;;;;;;0.50;0.30;;;10.30;99.90;;;;;;4947983;28;20721;-64
2023/03/14 05:23:28;;;;;;;0.50;0.30;;;10.20;99.90;;;;;;4950090;28;20623;-64
2023/03/14 05:25:57;;;;;;;0.50;0.30;;;10.20;99.90;;;;;;4949462;28;20237;-63
2023/03/14 05:28:24;;;;;;;0.50;0.40;;;10.20;99.90;;;;;;4956564;28;20228;-63
2023/03/14 05:30:52;;;;;;;0.50;0.40;;;10.20;99.90;;;;;;4950537;28;20292;-64
2023/03/14 05:33:21;;;;;;;0.50;0.30;;;10.20;99.90;;;;;;4951880;28;20241;-64
2023/03/14 05:35:49;;;;;;;0.50;0.40;;;10.20;99.90;;;;;;4955320;28;20234;-64
2023/03/14 05:38:18;;;;;;;0.50;0.40;;;10.20;99.90;;;;;;4948109;28;20210;-63
2023/03/14 05:40:46;;;;;;;0.90;0.40;;;10.20;99.90;;;;;;4955284;28;20209;-63
2023/03/14 05:43:15;;;;;;;0.50;0.30;;;10.20;99.90;;;;;;4950891;28;20218;-63
2023/03/14 05:45:43;;;;;;;0.50;0.40;;;10.20;99.90;;;;;;4953266;28;20265;-64
2023/03/14 05:48:11;;;;;;;0.50;0.38;;;10.30;99.90;;;;;;4963360;28;20241;-63
2023/03/14 05:50:41;;;;;;;0.50;0.30;;;10.20;99.90;;;;;;4962983;28;20221;-63
2023/03/14 05:53:08;;;;;;;0.50;0.30;;;10.30;99.90;;;;;;4949611;28;20302;-65
2023/03/14 05:55:36;;;;;;;0.50;0.30;;;10.20;99.90;;;;;;4948858;28;20233;-63
2023/03/14 05:58:04;;;;;;;0.50;0.40;;;10.20;99.90;;;;;;4949052;28;20203;-63
2023/03/14 06:00:32;;;;;;;0.50;0.30;;;10.20;99.90;;;;;;4947818;28;20214;-63
2023/03/14 06:03:00;;;;;;;0.50;0.40;;;10.10;99.90;;;;;;4947202;28;20246;-63
2023/03/14 06:05:28;;;;;;;0.50;0.30;;;10.20;99.90;;;;;;4949655;28;20226;-63
2023/03/14 06:07:57;;;;;;;0.50;0.40;;;10.10;99.90;;;;;;4944454;28;20222;-63
2023/03/14 06:10:25;;;;;;;0.50;0.30;;;10.20;99.90;;;;;;4948768;28;20205;-63
2023/03/14 06:12:53;;;;;;;0.50;0.40;;;10.20;99.90;;;;;;4950290;29;20250;-63
2023/03/14 06:15:21;;;;;;;0.50;0.30;;;10.20;99.90;;;;;;4913150;28;1022156;-63
2023/03/14 06:17:49;;;;;;;1.52;0.88;;;10.10;99.90;;;;;;4975378;28;20217;-63
2023/03/14 06:20:17;;;;;;;0.50;0.30;;;10.10;99.90;;;;;;4950944;28;20272;-63
2023/03/14 06:22:45;;;;;;;0.50;0.40;;;10.10;99.90;;;;;;4954080;28;20210;-63
2023/03/14 06:25:14;;;;;;;0.60;0.50;;;10.10;99.90;;;;;;4947038;28;20290;-63
2023/03/14 06:27:42;;;;;;;0.50;0.30;;;10.10;99.90;;;;;;4961094;28;20322;-63
2023/03/14 06:30:11;;;;;;;0.50;0.30;;;10.10;99.90;;;;;;4948655;28;20200;-63
2023/03/14 06:32:39;;;;;;;0.50;0.30;;;10.10;99.90;;;;;;4958530;28;20301;-63
2023/03/14 06:35:08;;;;;;;1.08;0.80;;;10.00;99.90;;;;;;4946310;28;20238;-63
2023/03/14 06:37:36;;;;;;;2.80;0.70;;;10.00;99.90;;;;;;4951084;28;20250;-63
2023/03/14 06:40:05;;;;;;;0.50;0.30;;;10.00;99.90;;;;;;4944168;28;20211;-63
2023/03/14 06:42:34;;;;;;;0.50;0.40;;;10.00;99.90;;;;;;4951514;28;20294;-63
2023/03/14 06:45:02;;;;;;;0.50;0.40;;;10.00;99.90;;;;;;4960029;28;20710;-63
2023/03/14 06:47:30;;;;;;;0.50;0.30;;;10.00;99.90;;;;;;4960018;28;20207;-62
2023/03/14 06:49:58;;;;;;;0.50;0.38;;;10.00;99.90;;;;;;4947542;28;20240;-63
2023/03/14 06:52:26;;;;;;;0.50;0.30;;;10.00;99.90;;;;;;4952734;28;20203;-64
2023/03/14 06:54:54;;;;;;;0.50;0.40;;;10.00;99.90;;;;;;4955591;28;20279;-62
2023/03/14 06:57:21;;;;;;;0.50;0.40;;;10.10;99.90;;;;;;4957700;28;20246;-63
2023/03/14 06:59:51;;;;;;;0.50;0.30;;;10.10;99.90;;;;;;4949648;28;20203;-62
2023/03/14 07:02:18;;;;;;;0.50;0.30;;;10.10;99.90;;;;;;4950485;28;20213;-63
2023/03/14 07:04:53;;;;;;;0.80;0.40;;;10.10;99.90;;;;;;4951506;28;20210;-63
2023/03/14 07:07:21;;;;;;;1.15;0.43;;;10.10;99.90;;;;;;4950606;28;20273;-62
2023/03/14 07:09:49;;;;;;;0.50;0.40;;;10.10;99.90;;;;;;4952361;28;20228;-63
2023/03/14 07:12:17;;;;;;;0.80;0.50;;;10.20;99.90;;;;;;4950847;28;20886;-63
2023/03/14 07:14:45;;;;;;;0.50;0.30;;;10.20;99.90;;;;;;4951243;28;20214;-63
2023/03/14 07:17:14;;;;;;;0.50;0.30;;;10.20;99.90;;;;;;4947236;29;20748;-63
2023/03/14 07:19:42;;;;;;;0.70;0.50;;;10.20;99.90;;;;;;4948281;29;20210;-63
2023/03/14 07:22:10;;;;;;;0.73;0.40;;;10.20;99.90;;;;;;4966747;28;20325;-63
2023/03/14 07:24:38;;;;;;;0.50;0.30;;;10.20;99.90;;;;;;4952197;28;20214;-64
2023/03/14 07:27:10;;;;;;;0.50;0.30;;;10.30;99.90;;;;;;4950906;28;20664;-63
2023/03/14 07:29:38;;;;;;;0.50;0.40;;;10.30;99.90;;;;;;4954415;28;20645;-63
2023/03/14 07:32:07;;;;;;;0.50;0.30;;;10.30;99.90;;;;;;4964791;28;20216;-63
2023/03/14 07:34:36;;;;;;;0.50;0.30;;;10.30;99.90;;;;;;4964920;28;20211;-63
2023/03/14 07:37:04;;;;;;;0.50;0.35;;;10.30;99.90;;;;;;4962141;28;20237;-63
2023/03/14 07:39:32;;;;;;;0.50;0.30;;;10.30;99.90;;;;;;4963181;28;20211;-62
2023/03/14 07:42:00;;;;;;;0.88;0.63;;;10.30;99.90;;;;;;4965895;28;20293;-62
2023/03/14 07:44:28;;;;;;;0.55;0.35;;;10.30;99.90;;;;;;4965946;28;20248;-63
2023/03/14 07:46:56;;;;;;;0.50;0.30;;;10.30;99.90;;;;;;4950612;28;20317;-63
2023/03/14 07:49:24;;;;;;;0.50;0.30;;;10.30;99.90;;;;;;4965999;28;20256;-63
2023/03/14 07:51:53;;;;;;;0.50;0.30;;;10.30;99.90;;;;;;4970546;28;20252;-62
2023/03/14 07:54:21;;;;;;;0.60;0.50;;;10.30;99.90;;;;;;4962853;28;20210;-63
2023/03/14 07:56:49;;;;;;;1.20;0.60;;;10.30;99.90;;;;;;4965507;28;20310;-62
2023/03/14 07:59:17;;;;;;;0.50;0.30;;;10.40;99.90;;;;;;4965764;28;20233;-63
2023/03/14 08:01:45;;;;;;;0.50;0.30;;;10.40;99.90;;;;;;4964210;28;20214;-62
2023/03/14 08:04:13;;;;;;;0.60;0.50;;;10.40;99.90;;;;;;4962467;28;20306;-62
2023/03/14 08:06:41;;;;;;;0.55;0.38;;;10.40;99.90;;;;;;4963669;28;20233;-63
2023/03/14 08:09:10;;;;;;;0.50;0.30;;;10.30;99.90;;;;;;4964738;28;20740;-63
2023/03/14 08:11:38;;;;;;;0.50;0.40;;;10.30;99.90;;;;;;4964604;28;20300;-63
2023/03/14 08:14:06;;;;;;;0.50;0.30;;;10.40;99.90;;;;;;4962236;28;20220;-62
2023/03/14 08:16:34;;;;;;;0.50;0.40;;;10.30;99.90;;;;;;4962521;28;20317;-62
2023/03/14 08:19:02;;;;;;;0.60;0.40;;;10.40;99.90;;;;;;4965705;28;20203;-62
2023/03/14 08:21:30;;;;;;;0.50;0.30;;;10.40;99.90;;;;;;4964417;28;20674;-62
2023/03/14 08:23:58;;;;;;;0.50;0.30;;;10.40;99.90;;;;;;4962617;28;20724;-62
2023/03/14 08:26:27;;;;;;;0.57;0.47;;;10.40;99.90;;;;;;4962353;28;20329;-62
2023/03/14 08:28:55;;;;;;;0.50;0.30;;;10.40;99.90;;;;;;4965175;28;20575;-62
2023/03/14 08:31:23;;;;;;;0.50;0.30;;;10.50;99.90;;;;;;4965481;28;20210;-62
2023/03/14 08:33:51;;;;;;;0.50;0.30;;;10.40;99.90;;;;;;4962398;28;20260;-62
2023/03/14 08:36:20;;;;;;;0.50;0.38;;;10.40;99.90;;;;;;4962024;28;20318;-62
2023/03/14 08:38:51;;;;;;;0.60;0.40;;;10.50;99.90;;;;;;4964463;28;20581;-62
2023/03/14 08:41:18;;;;;;;0.50;0.40;;;10.50;99.90;;;;;;4964998;28;20214;-62
2023/03/14 08:43:47;;;;;;;0.60;0.50;;;10.70;99.90;;;;;;4963087;28;20676;-63
2023/03/14 08:46:15;;;;;;;0.50;0.40;;;10.80;99.90;;;;;;4961707;28;20314;-62
2023/03/14 08:48:43;;;;;;;1.13;1.10;;;11.00;99.90;;;;;;4962814;28;20218;-62
2023/03/14 08:51:13;;;;;;;0.50;0.30;;;11.10;99.90;;;;;;4958675;28;20230;-62
2023/03/14 08:53:41;;;;;;;0.50;0.40;;;11.10;99.90;;;;;;4954209;28;20218;-63
2023/03/14 08:56:10;;;;;;;0.60;0.40;;;11.10;99.90;;;;;;4965243;28;20222;-62
2023/03/14 08:58:38;;;;;;;0.60;0.40;;;11.10;99.90;;;;;;4964327;28;20246;-63
2023/03/14 09:01:10;;;;;;;0.50;0.30;;;11.00;99.90;;;;;;4961977;28;20563;-62
2023/03/14 09:03:38;;;;;;;0.70;0.40;;;11.10;99.90;;;;;;4962723;28;20605;-62
2023/03/14 09:06:08;;;;;;;0.50;0.40;;;11.20;99.90;;;;;;4965146;28;20289;-62
2023/03/14 09:08:36;;;;;;;0.55;0.38;;;11.50;99.90;;;;;;4964351;28;20206;-63
2023/03/14 09:11:08;;;;;;;0.50;0.30;;;11.60;99.90;;;;;;4962108;28;20298;-62
2023/03/14 09:13:36;;;;;;;0.50;0.40;;;11.90;99.90;;;;;;4961285;28;20302;-62
2023/03/14 09:16:05;;;;;;;0.50;0.40;;;11.90;99.90;;;;;;4964471;28;20691;-62
2023/03/14 09:18:34;;;;;;;0.60;0.40;;;11.90;99.90;;;;;;4965023;28;20217;-63
2023/03/14 09:21:03;;;;;;;0.50;0.30;;;11.90;99.90;;;;;;4959195;28;20298;-62
2023/03/14 09:23:30;;;;;;;0.50;0.40;;;11.90;99.90;;;;;;4953549;28;20590;-62
2023/03/14 09:25:59;;;;;;;0.50;0.30;;;12.00;99.90;;;;;;4963940;28;20222;-62
2023/03/14 09:28:28;;;;;;;0.50;0.30;;;11.90;99.90;;;;;;4965200;28;20226;-62
2023/03/14 09:30:55;;;;;;;0.50;0.30;;;11.80;99.90;;;;;;4961904;28;20235;-62
2023/03/14 09:33:23;;;;;;;0.50;0.40;;;11.60;99.90;;;;;;4960968;28;20203;-62
2023/03/14 09:35:53;;;;;;;0.50;0.30;;;11.60;99.90;;;;;;4962993;28;20741;-62
2023/03/14 09:38:21;;;;;;;0.50;0.30;;;11.50;99.90;;;;;;4964599;28;20238;-62
2023/03/14 09:40:49;;;;;;;0.50;0.30;;;11.40;99.90;;;;;;4962441;28;20658;-62
2023/03/14 09:43:17;;;;;;;0.50;0.40;;;11.40;99.90;;;;;;4961343;28;20547;-63
2023/03/14 09:45:48;;;;;;;0.50;0.40;;;11.30;99.90;;;;;;4962433;28;20234;-62
2023/03/14 09:48:19;;;;;;;0.50;0.40;;;11.30;99.90;;;;;;4965130;28;20298;-63
2023/03/14 09:50:52;;;;;;;0.50;0.30;;;11.40;99.90;;;;;;4963028;28;20250;-62
2023/03/14 09:53:25;;;;;;;0.52;0.38;;;11.50;99.90;;;;;;4953681;28;20203;-62
2023/03/14 09:55:55;;;;;;;0.75;0.43;;;11.60;99.90;;;;;;4963033;28;20227;-62
2023/03/14 09:58:24;;;;;;;0.50;0.40;;;11.60;99.90;;;;;;4964363;28;20214;-62
2023/03/14 10:00:56;;;;;;;1.65;0.98;;;11.60;99.90;;;;;;4962594;28;20198;-62
2023/03/14 10:03:27;;;;;;;0.50;0.40;;;11.60;99.90;;;;;;4960717;28;20204;-62
2023/03/14 10:05:56;;;;;;;0.50;0.30;;;11.50;99.90;;;;;;4962891;28;20254;-62
2023/03/14 10:08:26;;;;;;;0.50;0.40;;;11.50;99.90;;;;;;4964721;28;20207;-62
2023/03/14 10:10:55;;;;;;;0.50;0.30;;;11.50;99.90;;;;;;4962386;28;20222;-62
2023/03/14 10:13:25;;;;;;;0.55;0.38;;;11.60;99.90;;;;;;4960878;28;20298;-62
2023/03/14 10:15:56;;;;;;;0.50;0.40;;;11.50;99.90;;;;;;4963053;28;20261;-63
2023/03/14 10:18:33;;;;;;;0.50;0.30;;;11.60;99.90;;;;;;4965117;28;20241;-62
2023/03/14 10:21:07;;;;;;;0.60;0.45;;;11.60;99.90;;;;;;4952644;28;20204;-62
2023/03/14 10:23:38;;;;;;;0.60;0.40;;;11.60;99.90;;;;;;4952936;28;20231;-62
2023/03/14 10:26:09;;;;;;;0.50;0.30;;;11.60;99.90;;;;;;4953403;28;20235;-63
2023/03/14 10:28:43;;;;;;;0.50;0.30;;;11.50;99.90;;;;;;4961609;28;20239;-64
2023/03/14 10:31:11;;;;;;;0.65;0.55;;;11.50;99.90;;;;;;4955057;28;20305;-64
2023/03/14 10:33:39;;;;;;;0.50;0.30;;;11.60;99.90;;;;;;4965457;28;20207;-63
2023/03/14 10:36:18;;;;;;;0.50;0.40;;;11.50;99.90;;;;;;4963802;28;20259;-63
2023/03/14 10:38:48;;;;;;;0.50;0.30;;;11.50;99.90;;;;;;4965079;28;20207;-64
2023/03/14 10:41:19;;;;;;;0.50;0.30;;;11.50;99.90;;;;;;4967399;28;20203;-64
2023/03/14 10:43:51;;;;;;;0.50;0.40;;;11.50;99.90;;;;;;4965988;28;20279;-63
2023/03/14 10:46:21;;;;;;;0.60;0.40;;;11.50;99.90;;;;;;4963857;28;20317;-64
2023/03/14 10:48:49;;;;;;;0.50;0.30;;;11.40;99.90;;;;;;4965336;28;20216;-64
2023/03/14 10:51:25;;;;;;;0.50;0.40;;;11.30;99.90;;;;;;4967052;28;20223;-64
2023/03/14 10:53:59;;;;;;;0.50;0.40;;;11.30;99.90;;;;;;4956259;28;20213;-64
2023/03/14 10:56:34;;;;;;;0.50;0.40;;;11.30;99.90;;;;;;4962123;28;20320;-64
2023/03/14 10:59:03;;;;;;;0.50;0.40;;;11.20;99.90;;;;;;4956619;28;20202;-64
2023/03/14 11:01:39;;;;;;;0.50;0.40;;;11.20;99.90;;;;;;4956265;28;20571;-64
2023/03/14 11:04:18;;;;;;;0.60;0.50;;;11.20;99.90;;;;;;4948425;28;20199;-64
2023/03/14 11:06:56;;;;;;;0.50;0.30;;;11.10;99.90;;;;;;4963951;28;20225;-64
2023/03/14 11:09:33;;;;;;;0.50;0.40;;;11.10;99.90;;;;;;4955916;28;20207;-64
2023/03/14 11:12:09;;;;;;;0.55;0.43;;;11.10;99.90;;;;;;4955886;28;20282;-64
2023/03/14 11:14:42;;;;;;;0.60;0.47;;;11.10;99.90;;;;;;4956035;28;20305;-64
2023/03/14 11:17:16;;;;;;;0.60;0.40;;;11.10;99.90;;;;;;4948501;28;20720;-64
2023/03/14 11:20:07;;;;;;;0.60;0.40;;;11.10;99.90;;;;;;4955693;28;20581;-64
2023/03/14 11:22:42;;;;;;;0.50;0.40;;;11.10;99.90;;;;;;4955690;28;20614;-64
2023/03/14 11:25:25;;;;;;;0.50;0.30;;;11.10;99.90;;;;;;4947560;29;20215;-64
2023/03/14 11:28:02;;;;;;;0.50;0.40;;;11.10;99.90;;;;;;4964613;28;20701;-64
2023/03/14 11:30:37;;;;;;;0.50;0.30;;;11.00;99.90;;;;;;4966843;28;20329;-64
2023/03/14 11:33:13;;;;;;;0.50;0.40;;;11.00;99.90;;;;;;4963457;28;20203;-64
2023/03/14 11:35:46;;;;;;;0.50;0.30;;;11.10;99.90;;;;;;4963392;28;20605;-64
2023/03/14 11:38:25;;;;;;;0.50;0.40;;;11.10;99.90;;;;;;4956669;28;20203;-64
2023/03/14 11:40:56;;;;;;;0.50;0.40;;;11.10;99.90;;;;;;4964312;28;20688;-62
2023/03/14 11:43:29;;;;;;;0.50;0.30;;;11.20;99.90;;;;;;4965057;28;20206;-63
2023/03/14 11:46:04;;;;;;;0.50;0.40;;;11.20;99.90;;;;;;4964424;28;20325;-62
2023/03/14 11:48:39;;;;;;;0.50;0.30;;;11.30;99.90;;;;;;4962925;28;20238;-62
2023/03/14 11:51:14;;;;;;;0.50;0.30;;;11.30;99.90;;;;;;4962647;28;20232;-63
2023/03/14 11:53:50;;;;;;;0.50;0.30;;;11.30;99.90;;;;;;4954670;28;20601;-63
2023/03/14 11:56:28;;;;;;;0.50;0.30;;;11.40;99.90;;;;;;4962693;28;20281;-63
2023/03/14 11:59:00;;;;;;;0.50;0.40;;;11.30;99.90;;;;;;4963610;28;20219;-63
2023/03/14 12:01:37;;;;;;;0.50;0.30;;;11.20;99.90;;;;;;4965518;28;20741;-63
2023/03/14 12:04:13;;;;;;;0.50;0.30;;;11.20;99.90;;;;;;4962575;28;20219;-63
2023/03/14 12:06:47;;;;;;;0.50;0.30;;;10.50;99.90;;;;;;4961968;28;20297;-63
2023/03/14 12:09:17;;;;;;;0.50;0.40;;;10.00;99.90;;;;;;4955142;28;20210;-63
2023/03/14 12:11:52;;;;;;;0.50;0.30;;;9.90;99.90;;;;;;4961706;28;20310;-63
2023/03/14 12:14:23;;;;;;;0.50;0.30;;;9.70;99.90;;;;;;4965518;28;20198;-63
2023/03/14 12:16:57;;;;;;;0.50;0.30;;;9.70;99.90;;;;;;4963782;28;20241;-63
2023/03/14 12:19:33;;;;;;;0.50;0.30;;;9.70;99.90;;;;;;4962071;28;20262;-63
2023/03/14 12:22:34;;;;;;;0.50;0.30;;;9.70;99.90;;;;;;4969308;28;20202;-63
2023/03/14 12:25:06;;;;;;;0.50;0.30;;;9.70;99.90;;;;;;4932554;28;20701;-63
2023/03/14 12:28:14;;;;;;;0.50;0.30;;;9.80;99.90;;;;;;4965139;28;20253;-63
2023/03/14 12:30:43;;;;;;;0.50;0.40;;;9.90;99.90;;;;;;4957994;28;20737;-63
2023/03/14 12:33:32;;;;;;;0.50;0.30;;;10.00;99.90;;;;;;4961575;28;20254;-64
2023/03/14 12:36:20;;;;;;;0.50;0.30;;;10.20;99.90;;;;;;4963429;28;20718;-63
2023/03/14 12:38:58;;;;;;;0.50;0.30;;;10.50;99.90;;;;;;4964518;28;20216;-63
2023/03/14 12:41:30;;;;;;;0.50;0.40;;;11.20;99.90;;;;;;4961683;28;20201;-63
2023/03/14 12:44:12;;;;;;;0.50;0.30;;;11.40;99.90;;;;;;4962842;28;20207;-63
2023/03/14 12:46:44;;;;;;;0.63;0.38;;;11.60;99.90;;;;;;4964594;28;20225;-63
2023/03/14 12:49:12;;;;;;;0.50;0.30;;;11.50;99.90;;;;;;4953827;28;20669;-63
2023/03/14 12:51:43;;;;;;;0.50;0.30;;;11.40;99.90;;;;;;4968330;28;20303;-63
2023/03/14 12:54:38;;;;;;;0.50;0.40;;;11.30;99.90;;;;;;4953188;28;20593;-63
2023/03/14 12:57:25;;;;;;;0.50;0.30;;;10.90;99.90;;;;;;4963667;28;20804;-63
2023/03/14 12:59:57;;;;;;;0.50;0.30;;;10.60;99.90;;;;;;4964376;28;20298;-63
2023/03/14 13:02:29;;;;;;;0.50;0.40;;;10.50;99.90;;;;;;4961510;28;20203;-63
2023/03/14 13:05:05;;;;;;;0.50;0.30;;;10.40;99.90;;;;;;4962838;28;20215;-63